INFORMACIÓN METAR y TAF
METAR FOR LFLS
ADDS - METARS form results

(2223 UTC 07 February 2023)
Data provider http://aviationweather.gov/metar/data/
 
METAR text: LFLS 072200Z AUTO VRB02KT CAVOK M01/M03 Q1031
Conditions at: LFLS (GRENOBLE/ST. GEO, FR) observed 2200 UTC 07 February 2023
Temperature: -1.0°C (30°F)
Dewpoint: -3.0°C (27°F) [RH = 86%]
Pressure (altimeter): 30.44 inches Hg (1031.0 mb)
Winds: variable direction winds at 2 MPH (2 knots; 1.0 m/s)
Visibility: 6 or more miles (10+ km)
Ceiling: ceiling and visibility are OK
Clouds: unknown
Weather: no significant weather observed at this time

METAR text: LFLS 072130Z AUTO 17003KT CAVOK M02/M04 Q1032
Conditions at: LFLS (GRENOBLE/ST. GEO, FR) observed 2130 UTC 07 February 2023
Temperature: -2.0°C (28°F)
Dewpoint: -4.0°C (25°F) [RH = 86%]
Pressure (altimeter): 30.47 inches Hg (1032.0 mb)
Winds: from the S (170 degrees) at 3 MPH (3 knots; 1.5 m/s)
Visibility: 6 or more miles (10+ km)
Ceiling: ceiling and visibility are OK
Clouds: unknown
Weather: no significant weather observed at this time

Forecast for: LFLS (GRENOBLE/ST. GEO, FR)
Text: TAF LFLS 071400Z 0715/0815 VRB03KT CAVOK
Forecast period: 1500 UTC 07 February 2023 to 1500 UTC 08 February 2023
Forecast type: FROM: standard forecast or significant change
Winds: variable direction winds at 3 MPH (3 knots; 1.5 m/s)
Visibility: 6 or more miles (10+ km)
Ceiling: unknown
Clouds: missing
Weather: NSW  (no significant weather)
Text: PROB40
Forecast period: 0000 to 0800 UTC 08 February 2023
Forecast type: TEMPORARY: The following changes expected for less than half the time period
Visibility: 1.86 miles (2.99 km)
Ceiling: unknown
Clouds: missing
Weather: BR  (mist)

 MAPA DE AEROPUERTO

 INFORMACIÓN DE PISTA
Pista 09 Longitud 10007 ft Ancho 148 ft
Elevación 1224 ft Umbral desplazado 0 ft Rumbo de pista 90
Pista 27 Longitud 10007 ft Ancho 148 ft
Elevación 1302 ft Umbral desplazado 0 ft Rumbo de pista 270

 FRECUANCIAS DEL AEROPUERTO
Tipo APP Nombre GRENOBLE A Frecuencia 119.3 MHZ
Tipo ATIS Nombre GRENOBLE A Frecuencia 125.725 MHZ
Tipo GND Nombre GRENOBLE G Frecuencia 121.925 MHZ
Tipo TWR Nombre GRENOBLE T Frecuencia 119.3 MHZ

 RADIO AYUDAS DEL AEROPUERTO



Powered by Virtual Airlines Manager [v2.6.2]